Time;durP1;ratioP1;P1;durP2;ratioP2;P2;SDS_P1;SDS_P2;PMS_P1;PMS_P2;Temp;Humidity;BMP_temperature;BMP_pressure;BME280_temperature;BME280_humidity;BME280_pressure;Samples;Min_cycle;Max_cycle;Signal;HPM_P1;HPM_P2
2020/12/17 00:01:32;;;;;;;3.87;3.47;;;8.80;99.90;;;;;;492959;241;27671;-75
2020/12/17 00:03:33;;;;;;;3.40;3.10;;;8.70;99.90;;;;;;493073;241;27886;-77
2020/12/17 00:05:34;;;;;;;3.90;3.30;;;8.70;99.90;;;;;;492945;241;27969;-75
2020/12/17 00:07:35;;;;;;;3.50;3.20;;;8.70;99.90;;;;;;493131;241;27902;-75
2020/12/17 00:09:37;;;;;;;3.83;3.07;;;8.70;99.90;;;;;;493125;238;28041;-75
2020/12/17 00:11:38;;;;;;;4.10;3.23;;;8.80;99.90;;;;;;493071;241;27523;-76
2020/12/17 00:13:39;;;;;;;4.03;3.10;;;8.80;99.90;;;;;;493174;241;28345;-76
2020/12/17 00:15:40;;;;;;;3.43;3.13;;;8.90;99.90;;;;;;493137;241;28334;-76
2020/12/17 00:17:42;;;;;;;4.20;3.03;;;8.90;99.90;;;;;;493096;241;28334;-75
2020/12/17 00:19:43;;;;;;;3.50;3.20;;;8.90;99.90;;;;;;493076;241;28298;-75
2020/12/17 00:21:44;;;;;;;7.33;3.07;;;8.80;99.90;;;;;;492697;241;28472;-75
2020/12/17 00:23:45;;;;;;;3.30;3.00;;;8.80;99.90;;;;;;492695;241;28246;-77
2020/12/17 00:25:47;;;;;;;3.40;3.10;;;8.70;99.90;;;;;;493146;241;27935;-76
2020/12/17 00:27:48;;;;;;;4.00;3.30;;;8.60;99.90;;;;;;493095;241;27538;-76
2020/12/17 00:29:49;;;;;;;4.00;3.10;;;8.60;99.90;;;;;;493114;241;28064;-75
2020/12/17 00:31:50;;;;;;;4.63;3.30;;;8.50;99.90;;;;;;493028;241;27721;-75
2020/12/17 00:33:52;;;;;;;4.93;3.20;;;8.60;99.90;;;;;;493076;241;27885;-76
2020/12/17 00:35:53;;;;;;;3.77;3.17;;;8.60;99.90;;;;;;493082;241;27657;-75
2020/12/17 00:37:54;;;;;;;3.57;3.27;;;8.70;99.90;;;;;;492988;241;27963;-75
2020/12/17 00:39:55;;;;;;;2.87;2.67;;;8.70;99.90;;;;;;492756;241;27719;-77
2020/12/17 00:41:57;;;;;;;3.20;2.90;;;8.70;99.90;;;;;;492905;240;27849;-76
2020/12/17 00:43:58;;;;;;;4.03;2.67;;;8.70;99.90;;;;;;492920;241;27899;-76
2020/12/17 00:45:59;;;;;;;3.53;2.93;;;8.80;99.90;;;;;;492968;241;28230;-76
2020/12/17 00:48:00;;;;;;;2.87;2.57;;;8.80;99.90;;;;;;492833;241;27948;-77
2020/12/17 00:50:02;;;;;;;4.13;3.10;;;8.80;99.90;;;;;;492956;241;27880;-77
2020/12/17 00:52:03;;;;;;;3.47;3.17;;;8.80;99.90;;;;;;492960;240;28310;-76
2020/12/17 00:54:04;;;;;;;3.27;2.97;;;8.80;99.90;;;;;;492959;241;27889;-75
2020/12/17 00:56:06;;;;;;;10.03;3.43;;;8.70;99.90;;;;;;492955;241;28437;-76
2020/12/17 00:58:07;;;;;;;6.03;3.33;;;8.80;99.90;;;;;;492933;241;28554;-76
2020/12/17 01:00:08;;;;;;;4.77;3.00;;;8.80;99.90;;;;;;492923;241;28393;-76
2020/12/17 01:02:09;;;;;;;2.83;2.63;;;8.80;99.90;;;;;;492957;241;27521;-75
2020/12/17 01:04:10;;;;;;;4.77;3.13;;;8.80;99.90;;;;;;492929;241;27971;-76
2020/12/17 01:06:12;;;;;;;3.40;2.87;;;8.80;99.90;;;;;;492963;241;27635;-75
2020/12/17 01:08:13;;;;;;;2.93;2.70;;;8.70;99.90;;;;;;493010;241;27504;-76
2020/12/17 01:10:14;;;;;;;3.30;3.00;;;8.70;99.90;;;;;;492932;241;27877;-76
2020/12/17 01:12:15;;;;;;;3.73;2.80;;;8.70;99.90;;;;;;493113;241;27783;-77
2020/12/17 01:14:17;;;;;;;3.43;3.13;;;8.60;99.90;;;;;;493141;241;27864;-75
2020/12/17 01:16:18;;;;;;;3.03;2.73;;;8.50;99.90;;;;;;493095;241;27878;-76
2020/12/17 01:18:19;;;;;;;5.97;2.40;;;8.60;99.90;;;;;;492658;241;27877;-75
2020/12/17 01:20:20;;;;;;;2.80;2.30;;;8.60;99.90;;;;;;492743;241;27991;-75
2020/12/17 01:22:23;;;;;;;3.30;2.80;;;8.60;99.90;;;;;;492877;241;28213;-76
2020/12/17 01:24:23;;;;;;;5.10;3.20;;;8.60;99.90;;;;;;492903;237;27808;-75
2020/12/17 01:26:24;;;;;;;3.43;2.87;;;8.60;99.90;;;;;;492989;241;27947;-75
2020/12/17 01:28:25;;;;;;;3.27;2.97;;;8.60;99.90;;;;;;493021;241;27863;-75
2020/12/17 01:30:26;;;;;;;4.17;2.93;;;8.60;99.90;;;;;;492937;241;28385;-76
2020/12/17 01:32:28;;;;;;;3.27;2.97;;;8.60;99.90;;;;;;493064;241;28472;-75
2020/12/17 01:34:29;;;;;;;3.20;2.90;;;8.60;99.90;;;;;;493109;241;29043;-76
2020/12/17 01:36:30;;;;;;;4.13;2.77;;;8.60;99.90;;;;;;493130;241;28141;-76
2020/12/17 01:38:31;;;;;;;3.43;2.87;;;8.60;99.90;;;;;;493143;237;28303;-75
2020/12/17 01:40:33;;;;;;;2.67;2.47;;;8.50;99.90;;;;;;493089;240;27512;-76
2020/12/17 01:42:34;;;;;;;3.80;3.00;;;8.50;99.90;;;;;;493052;241;27858;-76
2020/12/17 01:44:35;;;;;;;4.90;3.17;;;8.50;99.90;;;;;;492989;241;27845;-75
2020/12/17 01:46:36;;;;;;;3.77;2.80;;;8.50;99.90;;;;;;492985;241;28065;-75
2020/12/17 01:48:38;;;;;;;4.27;3.23;;;8.50;99.90;;;;;;492999;241;27461;-75
2020/12/17 01:50:39;;;;;;;4.97;3.13;;;8.50;99.90;;;;;;492918;241;27917;-76
2020/12/17 01:52:40;;;;;;;3.30;2.77;;;8.50;99.90;;;;;;492986;237;27959;-77
2020/12/17 01:54:41;;;;;;;3.37;3.07;;;8.50;99.90;;;;;;492961;238;27806;-76
2020/12/17 01:56:43;;;;;;;4.00;2.60;;;8.50;99.90;;;;;;493023;241;28130;-77
2020/12/17 01:58:44;;;;;;;3.33;2.90;;;8.50;99.90;;;;;;493044;241;27401;-76
2020/12/17 02:00:45;;;;;;;4.90;3.53;;;8.60;99.90;;;;;;493013;237;27875;-75
2020/12/17 02:02:46;;;;;;;4.53;3.33;;;8.60;99.90;;;;;;493115;241;27947;-76
2020/12/17 02:04:48;;;;;;;3.17;2.67;;;8.60;99.90;;;;;;493068;241;27667;-76
2020/12/17 02:06:49;;;;;;;5.93;3.43;;;8.60;99.90;;;;;;493128;241;28145;-75
2020/12/17 02:08:50;;;;;;;4.73;3.30;;;8.60;99.90;;;;;;493127;241;28420;-76
2020/12/17 02:10:51;;;;;;;3.23;2.90;;;8.60;99.90;;;;;;492916;241;28339;-75
2020/12/17 02:12:53;;;;;;;3.80;3.30;;;8.60;99.90;;;;;;493121;241;28144;-76
2020/12/17 02:14:54;;;;;;;2.97;2.77;;;8.60;99.90;;;;;;493030;241;28457;-76
2020/12/17 02:16:55;;;;;;;6.00;3.20;;;8.60;99.90;;;;;;492967;241;29092;-75
2020/12/17 02:18:56;;;;;;;3.53;2.73;;;8.60;99.90;;;;;;492967;241;27874;-77
2020/12/17 02:20:58;;;;;;;4.30;3.00;;;8.60;99.90;;;;;;492902;241;27611;-76
2020/12/17 02:22:59;;;;;;;5.10;3.57;;;8.50;99.90;;;;;;492982;241;27886;-75
2020/12/17 02:25:00;;;;;;;4.03;3.20;;;8.50;99.90;;;;;;492984;241;27890;-76
2020/12/17 02:27:01;;;;;;;3.57;3.27;;;8.50;99.90;;;;;;492976;241;27872;-76
2020/12/17 02:29:03;;;;;;;5.63;3.63;;;8.40;99.90;;;;;;492961;241;27886;-76
2020/12/17 02:31:04;;;;;;;4.50;3.37;;;8.30;99.90;;;;;;492849;241;27995;-76
2020/12/17 02:33:05;;;;;;;5.33;3.00;;;8.30;99.90;;;;;;492978;241;27525;-76
2020/12/17 02:35:06;;;;;;;4.37;3.20;;;8.20;99.90;;;;;;492975;241;28047;-76
2020/12/17 02:37:08;;;;;;;3.50;3.20;;;8.20;99.90;;;;;;492979;241;27848;-75
2020/12/17 02:39:09;;;;;;;5.63;3.50;;;8.30;99.90;;;;;;492977;241;27942;-76
2020/12/17 02:41:10;;;;;;;3.87;3.20;;;8.30;99.90;;;;;;493024;241;28039;-76
2020/12/17 02:43:11;;;;;;;3.43;2.80;;;8.40;99.90;;;;;;493121;241;28067;-76
2020/12/17 02:45:13;;;;;;;4.10;3.10;;;8.40;99.90;;;;;;493127;241;27711;-77
2020/12/17 02:47:14;;;;;;;3.20;2.93;;;8.40;99.90;;;;;;493090;241;28184;-76
2020/12/17 02:49:15;;;;;;;3.60;2.90;;;8.30;99.90;;;;;;493036;241;28424;-76
2020/12/17 02:51:16;;;;;;;5.10;2.90;;;8.40;99.90;;;;;;492895;241;28078;-76
2020/12/17 02:53:18;;;;;;;4.27;3.27;;;8.30;99.90;;;;;;492979;241;28323;-76
2020/12/17 02:55:19;;;;;;;4.70;3.23;;;8.30;99.90;;;;;;492996;241;28421;-77
2020/12/17 02:57:20;;;;;;;4.77;3.30;;;8.30;99.90;;;;;;492999;241;27917;-75
2020/12/17 02:59:21;;;;;;;4.43;3.37;;;8.30;99.90;;;;;;492962;241;27764;-76
2020/12/17 03:01:23;;;;;;;4.30;2.93;;;8.40;99.90;;;;;;492931;237;27979;-75
2020/12/17 03:03:24;;;;;;;4.00;2.80;;;8.40;99.90;;;;;;493002;241;27989;-76
2020/12/17 03:05:25;;;;;;;3.27;2.97;;;8.50;99.90;;;;;;493067;241;27886;-77
2020/12/17 03:07:26;;;;;;;4.37;2.80;;;8.50;99.90;;;;;;493151;241;28015;-74
2020/12/17 03:09:28;;;;;;;4.63;3.30;;;8.50;99.90;;;;;;493108;241;28002;-76
2020/12/17 03:11:29;;;;;;;3.07;2.77;;;8.60;99.90;;;;;;492965;238;27853;-75
2020/12/17 03:13:30;;;;;;;4.10;2.93;;;8.60;99.90;;;;;;493082;237;27950;-75
2020/12/17 03:15:31;;;;;;;4.20;3.13;;;8.60;99.90;;;;;;493049;241;27976;-76
2020/12/17 03:17:33;;;;;;;3.20;2.90;;;8.50;99.90;;;;;;493016;241;27912;-76
2020/12/17 03:19:34;;;;;;;5.57;2.80;;;8.50;99.90;;;;;;492949;237;27976;-76
2020/12/17 03:21:35;;;;;;;3.57;2.90;;;8.50;99.90;;;;;;492695;237;27905;-76
2020/12/17 03:23:36;;;;;;;4.97;3.30;;;8.50;99.90;;;;;;492905;238;28114;-74
2020/12/17 03:25:38;;;;;;;5.70;3.10;;;8.40;99.90;;;;;;493055;241;28387;-77
2020/12/17 03:27:42;;;;;;;3.57;2.80;;;8.40;99.90;;;;;;493055;241;27842;-76
2020/12/17 03:29:43;;;;;;;3.20;2.90;;;8.40;99.90;;;;;;493040;241;27489;-76
2020/12/17 03:31:44;;;;;;;3.43;3.13;;;8.30;99.90;;;;;;492996;237;27765;-76
2020/12/17 03:33:45;;;;;;;4.47;3.00;;;8.30;99.90;;;;;;493090;241;27925;-76
2020/12/17 03:35:47;;;;;;;5.70;3.23;;;8.30;99.90;;;;;;493137;241;27591;-76
2020/12/17 03:37:48;;;;;;;3.30;3.00;;;8.30;99.90;;;;;;493072;241;27930;-76
2020/12/17 03:39:49;;;;;;;3.27;2.97;;;8.30;99.90;;;;;;493298;241;27737;-77
2020/12/17 03:41:50;;;;;;;3.90;3.20;;;8.30;99.90;;;;;;493273;241;27888;-77
2020/12/17 03:43:52;;;;;;;3.50;3.20;;;8.30;99.90;;;;;;493257;241;28311;-77
2020/12/17 03:45:53;;;;;;;3.30;3.00;;;8.30;99.90;;;;;;493198;241;27998;-77
2020/12/17 03:47:54;;;;;;;4.53;2.97;;;8.30;99.90;;;;;;493031;241;29433;-77
2020/12/17 03:49:55;;;;;;;8.00;3.50;;;8.30;99.90;;;;;;492991;241;28503;-77
2020/12/17 03:51:57;;;;;;;4.03;3.50;;;8.30;99.90;;;;;;492763;241;28016;-77
2020/12/17 03:53:58;;;;;;;2.97;2.67;;;8.30;99.90;;;;;;493025;241;27881;-77
2020/12/17 03:55:59;;;;;;;9.00;3.50;;;8.20;99.90;;;;;;492964;241;27867;-77
2020/12/17 03:58:00;;;;;;;3.40;3.10;;;8.20;99.90;;;;;;492934;241;27897;-77
2020/12/17 04:00:02;;;;;;;6.73;3.37;;;8.20;99.90;;;;;;492990;238;27659;-79
2020/12/17 04:02:03;;;;;;;5.23;3.30;;;8.20;99.90;;;;;;492974;241;27860;-76
2020/12/17 04:04:04;;;;;;;3.53;3.23;;;8.10;99.90;;;;;;493009;241;27837;-77
2020/12/17 04:06:05;;;;;;;5.80;3.60;;;8.10;99.90;;;;;;492980;241;27754;-77
2020/12/17 04:08:07;;;;;;;7.63;3.40;;;8.10;99.90;;;;;;492935;241;27715;-77
2020/12/17 04:10:08;;;;;;;4.60;3.20;;;8.10;99.90;;;;;;492894;241;27896;-78
2020/12/17 04:12:09;;;;;;;4.00;3.27;;;8.10;99.90;;;;;;492971;241;28715;-78
2020/12/17 04:14:10;;;;;;;5.93;3.17;;;8.10;99.90;;;;;;492958;241;27998;-77
2020/12/17 04:16:12;;;;;;;4.57;3.10;;;8.10;99.90;;;;;;492941;241;27897;-77
2020/12/17 04:18:13;;;;;;;4.03;3.40;;;8.20;99.90;;;;;;492995;241;28098;-76
2020/12/17 04:20:14;;;;;;;4.80;3.60;;;8.20;99.90;;;;;;492934;241;28162;-78
2020/12/17 04:22:18;;;;;;;4.23;3.53;;;8.20;99.90;;;;;;492976;241;28348;-77
2020/12/17 04:24:19;;;;;;;4.17;3.03;;;8.20;99.90;;;;;;493117;241;28215;-75
2020/12/17 04:26:21;;;;;;;3.63;3.33;;;8.10;99.90;;;;;;493133;241;27987;-74
2020/12/17 04:28:22;;;;;;;3.13;2.77;;;8.10;99.90;;;;;;492962;241;27644;-74
2020/12/17 04:30:23;;;;;;;6.80;3.30;;;8.10;99.90;;;;;;492895;241;28198;-77
2020/12/17 04:32:24;;;;;;;3.90;3.50;;;8.20;99.90;;;;;;493017;241;27760;-77
2020/12/17 04:34:26;;;;;;;5.57;3.53;;;8.10;99.90;;;;;;492954;241;27959;-76
2020/12/17 04:36:27;;;;;;;5.00;3.57;;;8.20;99.90;;;;;;492997;241;28059;-76
2020/12/17 04:38:28;;;;;;;6.33;3.17;;;8.10;99.90;;;;;;493024;241;28198;-77
2020/12/17 04:40:29;;;;;;;10.03;3.00;;;8.20;99.90;;;;;;492969;241;28119;-76
2020/12/17 04:42:31;;;;;;;2.90;2.70;;;8.20;99.90;;;;;;493056;241;28549;-77
2020/12/17 04:44:32;;;;;;;5.83;3.23;;;8.20;99.90;;;;;;493045;241;29269;-77
2020/12/17 04:46:33;;;;;;;4.03;3.40;;;8.20;99.90;;;;;;493180;241;27640;-76
2020/12/17 04:48:34;;;;;;;6.03;3.43;;;8.30;99.90;;;;;;493196;241;28075;-79
2020/12/17 04:50:36;;;;;;;3.40;2.90;;;8.30;99.90;;;;;;493121;241;27871;-77
2020/12/17 04:52:37;;;;;;;7.50;3.00;;;8.20;99.90;;;;;;493108;241;28047;-75
2020/12/17 04:54:38;;;;;;;4.27;2.90;;;8.20;99.90;;;;;;492976;241;27921;-76
2020/12/17 04:56:39;;;;;;;7.20;3.63;;;8.20;99.90;;;;;;492677;241;27516;-76
2020/12/17 04:58:41;;;;;;;4.07;3.27;;;8.20;99.90;;;;;;493095;237;27734;-77
2020/12/17 05:00:42;;;;;;;8.60;3.40;;;8.20;99.90;;;;;;493163;241;27931;-76
2020/12/17 05:02:43;;;;;;;3.60;3.20;;;8.20;99.90;;;;;;493169;241;27421;-77
2020/12/17 05:04:44;;;;;;;8.07;3.03;;;8.20;99.90;;;;;;493112;241;27870;-76
2020/12/17 05:06:46;;;;;;;7.73;3.33;;;8.20;99.90;;;;;;493080;241;27936;-77
2020/12/17 05:08:47;;;;;;;4.03;3.00;;;8.20;99.90;;;;;;493043;241;27668;-77
2020/12/17 05:10:48;;;;;;;5.23;3.20;;;8.10;99.90;;;;;;492969;241;27759;-76
2020/12/17 05:12:49;;;;;;;4.13;3.00;;;8.10;99.90;;;;;;493034;241;27886;-77
2020/12/17 05:14:51;;;;;;;4.00;3.27;;;8.20;99.90;;;;;;492991;241;28367;-78
2020/12/17 05:16:52;;;;;;;5.60;3.87;;;8.20;99.90;;;;;;492983;241;28411;-77
2020/12/17 05:18:53;;;;;;;3.50;3.20;;;8.10;99.90;;;;;;492982;241;28480;-77
2020/12/17 05:20:54;;;;;;;4.63;2.90;;;8.10;99.90;;;;;;492971;241;28114;-77
2020/12/17 05:22:56;;;;;;;6.73;4.03;;;8.10;99.90;;;;;;493032;241;28346;-78
2020/12/17 05:24:57;;;;;;;3.30;3.00;;;8.00;99.90;;;;;;492707;241;27761;-77
2020/12/17 05:26:58;;;;;;;5.73;3.53;;;8.00;99.90;;;;;;493001;241;27935;-77
2020/12/17 05:28:59;;;;;;;3.07;2.83;;;8.00;99.90;;;;;;492957;241;27767;-76
2020/12/17 05:31:01;;;;;;;3.70;3.13;;;8.10;99.90;;;;;;492956;241;28247;-76
2020/12/17 05:33:02;;;;;;;6.60;3.37;;;8.10;99.90;;;;;;492996;241;28010;-77
2020/12/17 05:35:03;;;;;;;4.27;3.43;;;8.00;99.90;;;;;;493020;241;28105;-76
2020/12/17 05:37:04;;;;;;;5.13;3.67;;;8.00;99.90;;;;;;492964;241;27900;-76
2020/12/17 05:39:06;;;;;;;4.50;3.87;;;8.10;99.90;;;;;;492968;241;27945;-77
2020/12/17 05:41:07;;;;;;;7.80;3.53;;;8.00;99.90;;;;;;492386;241;27844;-76
2020/12/17 05:43:08;;;;;;;3.20;2.90;;;8.00;99.90;;;;;;493045;241;27780;-77
2020/12/17 05:45:09;;;;;;;3.27;2.97;;;8.00;99.90;;;;;;493002;241;27958;-76
2020/12/17 05:47:11;;;;;;;4.30;3.10;;;8.00;99.90;;;;;;492963;241;27890;-77
2020/12/17 05:49:12;;;;;;;4.87;3.63;;;8.00;99.90;;;;;;493003;241;27862;-76
2020/12/17 05:51:13;;;;;;;5.67;4.10;;;8.00;99.90;;;;;;492965;241;27750;-77
2020/12/17 05:53:15;;;;;;;4.93;3.57;;;8.00;99.90;;;;;;493037;241;28444;-76
2020/12/17 05:55:16;;;;;;;6.90;3.63;;;8.00;99.90;;;;;;493124;241;28367;-76
2020/12/17 05:57:17;;;;;;;5.53;3.30;;;7.90;99.90;;;;;;492966;241;28077;-77
2020/12/17 05:59:18;;;;;;;5.77;3.80;;;7.90;99.90;;;;;;492628;238;28338;-77
2020/12/17 06:01:19;;;;;;;3.43;3.13;;;7.90;99.90;;;;;;492579;241;28463;-77
2020/12/17 06:03:21;;;;;;;4.90;3.93;;;7.90;99.90;;;;;;492948;237;28585;-77
2020/12/17 06:05:22;;;;;;;3.63;3.30;;;7.90;99.90;;;;;;492998;241;28021;-76
2020/12/17 06:07:23;;;;;;;6.60;3.30;;;7.90;99.90;;;;;;492974;241;28053;-77
2020/12/17 06:09:24;;;;;;;4.07;3.57;;;7.80;99.90;;;;;;492989;241;27838;-76
2020/12/17 06:11:26;;;;;;;6.00;3.53;;;7.80;99.90;;;;;;492981;241;28732;-77
2020/12/17 06:13:27;;;;;;;7.53;4.37;;;7.90;99.90;;;;;;493031;241;27749;-77
2020/12/17 06:15:28;;;;;;;7.93;4.37;;;7.90;99.90;;;;;;493028;241;27531;-77
2020/12/17 06:17:29;;;;;;;6.53;3.70;;;7.90;99.90;;;;;;493141;241;27406;-78
2020/12/17 06:19:31;;;;;;;4.40;4.00;;;7.80;99.90;;;;;;493122;241;28413;-77
2020/12/17 06:21:32;;;;;;;6.00;4.10;;;7.80;99.90;;;;;;493141;241;27986;-77
2020/12/17 06:23:33;;;;;;;3.50;3.03;;;7.80;99.90;;;;;;493188;241;27916;-77
2020/12/17 06:25:34;;;;;;;4.87;3.77;;;7.80;99.90;;;;;;493151;241;28296;-76
2020/12/17 06:27:36;;;;;;;8.03;3.70;;;7.80;99.90;;;;;;492162;241;28350;-78
2020/12/17 06:29:37;;;;;;;9.30;4.00;;;7.80;99.90;;;;;;492262;241;28394;-76
2020/12/17 06:31:38;;;;;;;6.70;4.00;;;7.80;99.90;;;;;;493009;241;28221;-77
2020/12/17 06:33:39;;;;;;;4.53;4.10;;;7.80;99.90;;;;;;493138;241;28305;-77
2020/12/17 06:35:41;;;;;;;7.00;3.83;;;7.90;99.90;;;;;;493071;241;28141;-76
2020/12/17 06:37:42;;;;;;;8.63;3.87;;;7.90;99.90;;;;;;493000;241;28122;-78
2020/12/17 06:39:43;;;;;;;5.87;4.20;;;7.90;99.90;;;;;;492952;237;27571;-77
2020/12/17 06:41:44;;;;;;;5.20;4.00;;;7.90;99.90;;;;;;492935;241;28001;-77
2020/12/17 06:43:46;;;;;;;5.60;3.57;;;7.90;99.90;;;;;;492978;240;27824;-76
2020/12/17 06:45:47;;;;;;;8.10;4.37;;;7.90;99.90;;;;;;492942;241;27627;-78
2020/12/17 06:47:48;;;;;;;6.30;4.13;;;7.90;99.90;;;;;;492951;241;27947;-78
2020/12/17 06:49:49;;;;;;;5.20;4.10;;;7.90;99.90;;;;;;492981;241;27976;-77
2020/12/17 06:51:51;;;;;;;3.83;3.37;;;7.90;99.90;;;;;;492971;241;27866;-77
2020/12/17 06:53:52;;;;;;;4.20;3.73;;;7.90;99.90;;;;;;492986;241;27892;-77
2020/12/17 06:55:53;;;;;;;5.60;3.87;;;7.90;99.90;;;;;;492991;241;27854;-77
2020/12/17 06:57:54;;;;;;;3.43;3.13;;;7.90;99.90;;;;;;492970;241;27961;-76
2020/12/17 06:59:56;;;;;;;5.30;3.70;;;7.90;99.90;;;;;;492947;241;27882;-76
2020/12/17 07:01:57;;;;;;;4.20;3.63;;;7.90;99.90;;;;;;492955;241;27754;-77
2020/12/17 07:03:58;;;;;;;6.00;4.17;;;8.00;99.90;;;;;;492976;241;28518;-78
2020/12/17 07:05:59;;;;;;;5.07;3.60;;;8.00;99.90;;;;;;492948;241;29216;-77
2020/12/17 07:08:01;;;;;;;4.37;3.50;;;8.00;99.90;;;;;;492915;241;28524;-77
2020/12/17 07:10:02;;;;;;;4.40;4.00;;;8.00;99.90;;;;;;492916;241;28234;-77
2020/12/17 07:12:03;;;;;;;3.90;3.50;;;8.00;99.90;;;;;;492937;241;28868;-76
2020/12/17 07:14:04;;;;;;;5.10;3.83;;;8.10;99.90;;;;;;492959;241;28021;-77
2020/12/17 07:16:06;;;;;;;4.77;3.57;;;8.10;99.90;;;;;;492959;241;27903;-77
2020/12/17 07:18:07;;;;;;;5.03;3.57;;;8.10;99.90;;;;;;492952;241;28113;-77
2020/12/17 07:20:08;;;;;;;3.77;3.40;;;8.20;99.90;;;;;;492923;241;27898;-76
2020/12/17 07:22:10;;;;;;;5.43;3.43;;;8.20;99.90;;;;;;493041;238;27863;-77
2020/12/17 07:24:11;;;;;;;8.20;3.60;;;8.20;99.90;;;;;;493054;241;27879;-78
2020/12/17 07:26:12;;;;;;;4.43;4.03;;;8.20;99.90;;;;;;493115;241;27747;-77
2020/12/17 07:28:13;;;;;;;6.50;3.73;;;8.30;99.90;;;;;;493041;241;27887;-76
2020/12/17 07:30:14;;;;;;;6.20;3.57;;;8.20;99.90;;;;;;492921;241;27963;-77
2020/12/17 07:32:16;;;;;;;5.87;3.90;;;8.30;99.90;;;;;;492921;241;27604;-77
2020/12/17 07:34:17;;;;;;;8.87;4.00;;;8.30;99.90;;;;;;493022;241;27970;-77
2020/12/17 07:36:18;;;;;;;6.80;4.10;;;8.30;99.90;;;;;;493230;241;28077;-78
2020/12/17 07:38:19;;;;;;;5.17;3.90;;;8.30;99.90;;;;;;493228;241;27745;-76
2020/12/17 07:40:21;;;;;;;7.30;4.53;;;8.30;99.90;;;;;;493197;241;27429;-77
2020/12/17 07:42:22;;;;;;;7.80;4.67;;;8.40;99.90;;;;;;493161;237;28573;-77
2020/12/17 07:44:23;;;;;;;6.20;4.00;;;8.40;99.90;;;;;;493175;241;28141;-77
2020/12/17 07:46:24;;;;;;;5.83;3.90;;;8.50;99.90;;;;;;493178;241;29190;-77
2020/12/17 07:48:26;;;;;;;3.87;3.57;;;8.50;99.90;;;;;;493207;241;27964;-76
2020/12/17 07:50:27;;;;;;;7.40;4.43;;;8.50;99.90;;;;;;493185;241;28484;-77
2020/12/17 07:52:28;;;;;;;6.37;3.40;;;8.50;99.90;;;;;;492615;241;27850;-76
2020/12/17 07:54:29;;;;;;;6.03;3.53;;;8.50;99.90;;;;;;492275;241;27903;-77
2020/12/17 07:56:31;;;;;;;7.03;3.77;;;8.50;99.90;;;;;;492426;241;27972;-76
2020/12/17 07:58:32;;;;;;;5.20;3.60;;;8.50;99.90;;;;;;492707;241;28140;-77
2020/12/17 08:00:33;;;;;;;11.10;3.87;;;8.60;99.90;;;;;;493131;241;27912;-77
2020/12/17 08:02:34;;;;;;;3.50;3.13;;;8.60;99.90;;;;;;493098;241;27886;-77
2020/12/17 08:04:36;;;;;;;7.67;3.40;;;8.60;99.90;;;;;;493026;241;27748;-77
2020/12/17 08:06:37;;;;;;;4.70;3.60;;;8.60;99.90;;;;;;492890;237;27618;-77
2020/12/17 08:08:39;;;;;;;5.70;4.20;;;8.60;99.90;;;;;;493011;241;27690;-77
2020/12/17 08:10:39;;;;;;;6.30;3.93;;;8.60;99.90;;;;;;492924;241;27554;-77
2020/12/17 08:12:41;;;;;;;5.50;3.87;;;8.60;99.90;;;;;;493079;241;27613;-77
2020/12/17 08:14:42;;;;;;;4.80;4.10;;;8.70;99.90;;;;;;493028;241;27899;-77
2020/12/17 08:16:43;;;;;;;5.00;4.00;;;8.70;99.90;;;;;;493021;241;27899;-78
2020/12/17 08:18:44;;;;;;;6.20;4.00;;;8.70;99.90;;;;;;493006;241;27772;-77
2020/12/17 08:20:46;;;;;;;5.87;4.03;;;8.80;99.90;;;;;;492984;241;29001;-76
2020/12/17 08:22:47;;;;;;;5.87;3.90;;;8.80;99.90;;;;;;493037;241;28283;-77
2020/12/17 08:24:48;;;;;;;7.07;4.57;;;8.80;99.90;;;;;;492995;241;28408;-76
2020/12/17 08:26:49;;;;;;;6.57;4.20;;;8.80;99.90;;;;;;493069;241;28340;-77
2020/12/17 08:28:51;;;;;;;7.50;4.10;;;8.80;99.90;;;;;;493049;241;28547;-77
2020/12/17 08:30:52;;;;;;;7.53;4.90;;;8.80;99.90;;;;;;492927;241;27789;-77
2020/12/17 08:32:53;;;;;;;8.70;4.30;;;8.90;99.90;;;;;;493005;241;27889;-76
2020/12/17 08:34:54;;;;;;;6.80;4.70;;;8.80;99.90;;;;;;493024;241;27855;-76
2020/12/17 08:36:56;;;;;;;6.10;4.53;;;8.80;99.90;;;;;;493018;241;27465;-77
2020/12/17 08:38:57;;;;;;;10.50;4.67;;;8.80;99.90;;;;;;492897;241;27978;-77
2020/12/17 08:40:58;;;;;;;6.10;4.27;;;8.80;99.90;;;;;;492841;241;28060;-77
2020/12/17 08:42:59;;;;;;;8.40;4.73;;;8.80;99.90;;;;;;492925;241;28288;-76
2020/12/17 08:45:01;;;;;;;5.00;4.10;;;8.90;99.90;;;;;;492976;241;27746;-77
2020/12/17 08:47:02;;;;;;;10.50;5.20;;;8.90;99.90;;;;;;492970;241;27537;-77
2020/12/17 08:49:03;;;;;;;10.17;4.53;;;8.90;99.90;;;;;;492927;241;27764;-76
2020/12/17 08:51:04;;;;;;;8.50;4.73;;;8.90;99.90;;;;;;492986;241;27654;-77
2020/12/17 08:53:06;;;;;;;5.73;4.60;;;8.90;99.90;;;;;;493082;241;27970;-77
2020/12/17 08:55:07;;;;;;;8.40;4.40;;;8.90;99.90;;;;;;493164;241;28464;-78
2020/12/17 08:57:08;;;;;;;10.27;4.43;;;8.90;99.90;;;;;;493079;241;28434;-77
2020/12/17 08:59:09;;;;;;;10.07;5.37;;;8.90;99.90;;;;;;493006;238;28586;-77
2020/12/17 09:01:11;;;;;;;5.87;4.70;;;8.90;99.90;;;;;;492926;241;28310;-76
2020/12/17 09:03:12;;;;;;;6.53;4.73;;;9.00;99.90;;;;;;492972;241;27748;-77
2020/12/17 09:05:13;;;;;;;7.10;4.43;;;8.90;99.90;;;;;;492966;241;27922;-76
2020/12/17 09:07:14;;;;;;;10.80;5.57;;;8.80;99.90;;;;;;492952;238;27777;-77
2020/12/17 09:09:16;;;;;;;6.30;4.83;;;8.80;99.90;;;;;;493056;241;27875;-77
2020/12/17 09:11:17;;;;;;;9.80;5.00;;;8.80;99.90;;;;;;493127;241;27972;-77
2020/12/17 09:13:19;;;;;;;8.87;5.17;;;8.80;99.90;;;;;;493142;241;27892;-77
2020/12/17 09:15:19;;;;;;;5.80;5.07;;;8.80;99.90;;;;;;493123;241;27722;-76
2020/12/17 09:17:21;;;;;;;6.40;4.80;;;8.80;99.90;;;;;;493137;241;27882;-76
2020/12/17 09:19:22;;;;;;;8.63;5.10;;;8.80;99.90;;;;;;493175;241;27940;-79
2020/12/17 09:21:23;;;;;;;9.63;4.97;;;8.70;99.90;;;;;;493144;241;27917;-76
2020/12/17 09:23:24;;;;;;;7.73;5.30;;;8.70;99.90;;;;;;493160;241;27640;-77
2020/12/17 09:25:26;;;;;;;7.60;5.23;;;8.80;99.90;;;;;;492820;237;28322;-76
2020/12/17 09:27:27;;;;;;;6.33;5.03;;;8.80;99.90;;;;;;492710;241;27788;-77
2020/12/17 09:29:28;;;;;;;7.77;5.73;;;8.70;99.90;;;;;;492954;241;28398;-77
2020/12/17 09:31:29;;;;;;;9.20;5.90;;;8.70;99.90;;;;;;492967;241;28409;-77
2020/12/17 09:33:31;;;;;;;10.43;5.90;;;8.80;99.90;;;;;;492998;241;28417;-77
2020/12/17 09:35:32;;;;;;;5.70;4.97;;;8.80;99.90;;;;;;492958;241;28316;-77
2020/12/17 09:37:33;;;;;;;5.87;5.07;;;8.80;99.90;;;;;;492935;241;28635;-76
2020/12/17 09:39:34;;;;;;;8.30;5.90;;;8.80;99.90;;;;;;492672;241;27879;-77
2020/12/17 09:41:36;;;;;;;5.37;4.87;;;8.80;99.90;;;;;;492933;241;27942;-77
2020/12/17 09:43:37;;;;;;;5.57;4.90;;;8.70;99.90;;;;;;493001;241;27764;-76
2020/12/17 09:45:38;;;;;;;8.53;5.40;;;8.70;99.90;;;;;;492965;241;27876;-76
2020/12/17 09:47:39;;;;;;;14.03;6.67;;;8.80;99.90;;;;;;492929;241;27718;-77
2020/12/17 09:49:41;;;;;;;8.57;5.30;;;8.80;99.90;;;;;;492931;241;27719;-78
2020/12/17 09:51:42;;;;;;;9.30;5.23;;;8.80;99.90;;;;;;492882;241;27558;-77
2020/12/17 09:53:43;;;;;;;5.93;5.30;;;8.80;99.90;;;;;;492900;241;27547;-77
2020/12/17 09:55:44;;;;;;;6.10;4.83;;;8.70;99.90;;;;;;492944;241;27893;-77
2020/12/17 09:57:47;;;;;;;5.73;5.10;;;8.80;99.90;;;;;;492984;241;28076;-77
2020/12/17 09:59:47;;;;;;;5.90;5.20;;;8.90;99.90;;;;;;492918;238;27892;-76
2020/12/17 10:01:48;;;;;;;5.90;5.10;;;9.00;99.90;;;;;;492913;241;27960;-76
2020/12/17 10:03:49;;;;;;;6.80;5.63;;;9.00;99.90;;;;;;492959;241;27949;-77
2020/12/17 10:05:50;;;;;;;7.53;6.07;;;9.00;99.90;;;;;;492969;241;28537;-77
2020/12/17 10:07:52;;;;;;;6.03;5.20;;;9.00;99.90;;;;;;492940;241;28422;-77
2020/12/17 10:09:53;;;;;;;8.37;5.30;;;9.00;99.90;;;;;;492950;241;28488;-77
2020/12/17 10:11:54;;;;;;;6.27;5.23;;;9.10;99.90;;;;;;492957;241;28352;-76
2020/12/17 10:13:55;;;;;;;8.30;5.57;;;9.10;99.90;;;;;;492993;241;28454;-77
2020/12/17 10:15:57;;;;;;;5.37;4.87;;;9.20;99.90;;;;;;492967;241;28375;-76
2020/12/17 10:17:58;;;;;;;6.10;5.43;;;9.20;99.90;;;;;;492951;241;27888;-77
2020/12/17 10:19:59;;;;;;;8.80;5.30;;;9.20;99.90;;;;;;492946;241;28036;-77
2020/12/17 10:22:00;;;;;;;7.43;5.30;;;9.20;99.90;;;;;;492981;241;27988;-77
2020/12/17 10:24:02;;;;;;;7.13;5.10;;;9.30;99.90;;;;;;493106;241;27532;-77
2020/12/17 10:26:04;;;;;;;7.57;6.27;;;9.40;99.90;;;;;;493085;241;28361;-77
2020/12/17 10:28:04;;;;;;;5.93;5.20;;;9.50;99.90;;;;;;492955;241;27846;-77
2020/12/17 10:30:05;;;;;;;5.83;5.20;;;9.50;99.90;;;;;;492937;241;27959;-77
2020/12/17 10:32:07;;;;;;;10.37;5.27;;;9.40;99.90;;;;;;492947;241;27782;-77
2020/12/17 10:34:08;;;;;;;6.80;5.27;;;9.50;99.90;;;;;;492907;241;27508;-77
2020/12/17 10:36:09;;;;;;;6.60;5.23;;;9.60;99.90;;;;;;492966;238;27595;-77
2020/12/17 10:38:10;;;;;;;7.03;5.03;;;9.60;99.90;;;;;;493012;241;27884;-77
2020/12/17 10:40:12;;;;;;;5.87;4.80;;;9.60;99.90;;;;;;493013;241;27836;-77